Airfield :
LOGIN :

Register | Disclaimer

   EN    FR    IT 

 










Legend :    VFR   Marginal VFR   IFR   Intensive IFR   Very Intensive IFR
Visi :
Ceiling :
>= 8 km
>= 3000ft
5 to 8 km
1000 to 3000 ft
1500m to 5 km
500 to 1000 ft
800 to 1500m
200 to 500 ft
< 800m
< 200 ft
Symbols :   Thunderstorms  Fog  Heavy snow  Heavy precipitations  Wind > 20 kt
SIGMETs :     Misc.  Thunderstorms  Icing  Turbulence  Mountain Waves  Volcanic Ashes







- Airport Elevation : 209 ft
- IATA code : CLY
- Download approach charts


LFKC - Calvi

CURRENT METAR :
  • 231430Z AUTO 35007KT 310V020 9999 FEW034 26/20 Q1017 NOSIG

EXPIRED METARs :
  • 231400Z AUTO 36007KT 320V020 9999 FEW048 26/19 Q1017 NOSIG
  • 231330Z AUTO 35007KT 290V030 CAVOK 27/20 Q1017 NOSIG
  • 231300Z AUTO 35008KT 300V020 CAVOK 27/19 Q1018 NOSIG
  • 231230Z AUTO 35007KT 290V020 CAVOK 26/19 Q1018 NOSIG
  • 231200Z AUTO 35007KT 280V030 CAVOK 27/19 Q1018 NOSIG

TAF AMD TAF LFKC
Valid from the 23 at 15:00 until the 24 at 15:00 UTC


231410Z 2315/2415 35010KT 9999 FEW040 TX29/2413Z TN21/2404Z
BECMG 2318/2321 20010KT
TEMPO 2400/2409 23015G25KT
ATIS : +33 4 95 65 82 49
No reported NOTAMs for that airfield.



MET'MAP, your aeronautical weather chart ! - Copyright ORBIFLY December 2007 - Disclaimer

ORBIFLY MET'MAP TEAM :

Programming & Development : Alexandra Zaïnal
Concept & Development : Baudouin d'Aumeries
Co-Development & Prog : Marc-Olivier Méhu
Technical & hardware support : Manuel Goepfert

Contact : metmap@orbifly.com




SOURCES & CREDITS :

   NOAA